sensor_id;sensor_type;location;lat;lon;timestamp;temperature;humidity
75500;DHT22;64076;51.466;7.260;2024-03-07T00:01:32;25.10;31.50
75500;DHT22;64076;51.466;7.260;2024-03-07T00:03:58;25.10;31.50
75500;DHT22;64076;51.466;7.260;2024-03-07T00:06:23;25.10;31.40
75500;DHT22;64076;51.466;7.260;2024-03-07T00:08:49;25.10;31.40
75500;DHT22;64076;51.466;7.260;2024-03-07T00:11:14;25.10;31.40
75500;DHT22;64076;51.466;7.260;2024-03-07T00:13:40;25.10;31.40
75500;DHT22;64076;51.466;7.260;2024-03-07T00:16:05;25.10;31.50
75500;DHT22;64076;51.466;7.260;2024-03-07T00:18:31;25.10;31.40
75500;DHT22;64076;51.466;7.260;2024-03-07T00:20:56;25.10;31.40
75500;DHT22;64076;51.466;7.260;2024-03-07T00:23:22;25.00;31.40
75500;DHT22;64076;51.466;7.260;2024-03-07T00:25:47;25.00;31.40
75500;DHT22;64076;51.466;7.260;2024-03-07T00:28:16;25.00;31.50
75500;DHT22;64076;51.466;7.260;2024-03-07T00:30:43;25.00;31.40
75500;DHT22;64076;51.466;7.260;2024-03-07T00:33:11;25.00;31.40
75500;DHT22;64076;51.466;7.260;2024-03-07T00:35:37;25.00;31.40
75500;DHT22;64076;51.466;7.260;2024-03-07T00:38:02;25.00;31.40
75500;DHT22;64076;51.466;7.260;2024-03-07T00:40:29;25.00;31.40
75500;DHT22;64076;51.466;7.260;2024-03-07T00:42:54;25.00;31.40
75500;DHT22;64076;51.466;7.260;2024-03-07T00:45:20;25.00;31.40
75500;DHT22;64076;51.466;7.260;2024-03-07T00:47:45;25.00;31.40
75500;DHT22;64076;51.466;7.260;2024-03-07T00:50:11;25.00;31.40
75500;DHT22;64076;51.466;7.260;2024-03-07T00:52:37;25.00;31.40
75500;DHT22;64076;51.466;7.260;2024-03-07T00:55:03;25.00;31.30
75500;DHT22;64076;51.466;7.260;2024-03-07T00:57:29;25.00;31.40
75500;DHT22;64076;51.466;7.260;2024-03-07T00:59:54;25.00;31.40
75500;DHT22;64076;51.466;7.260;2024-03-07T01:02:21;25.00;31.30
75500;DHT22;64076;51.466;7.260;2024-03-07T01:04:47;25.00;31.30
75500;DHT22;64076;51.466;7.260;2024-03-07T01:07:13;25.00;31.30
75500;DHT22;64076;51.466;7.260;2024-03-07T01:09:39;25.00;31.30
75500;DHT22;64076;51.466;7.260;2024-03-07T01:12:05;25.00;31.30
75500;DHT22;64076;51.466;7.260;2024-03-07T01:14:31;25.00;31.30
75500;DHT22;64076;51.466;7.260;2024-03-07T01:16:56;25.00;31.30
75500;DHT22;64076;51.466;7.260;2024-03-07T01:19:22;25.00;31.30
75500;DHT22;64076;51.466;7.260;2024-03-07T01:21:48;24.90;31.30
75500;DHT22;64076;51.466;7.260;2024-03-07T01:24:14;24.90;31.30
75500;DHT22;64076;51.466;7.260;2024-03-07T01:26:43;24.90;31.20
75500;DHT22;64076;51.466;7.260;2024-03-07T01:29:09;24.90;31.20
75500;DHT22;64076;51.466;7.260;2024-03-07T01:31:34;24.90;31.20
75500;DHT22;64076;51.466;7.260;2024-03-07T01:34:00;24.90;31.20
75500;DHT22;64076;51.466;7.260;2024-03-07T01:36:25;24.90;31.20
75500;DHT22;64076;51.466;7.260;2024-03-07T01:38:51;24.90;31.20
75500;DHT22;64076;51.466;7.260;2024-03-07T01:41:17;24.90;31.20
75500;DHT22;64076;51.466;7.260;2024-03-07T01:43:43;24.90;31.10
75500;DHT22;64076;51.466;7.260;2024-03-07T01:46:09;25.00;31.10
75500;DHT22;64076;51.466;7.260;2024-03-07T01:48:41;25.00;31.10
75500;DHT22;64076;51.466;7.260;2024-03-07T01:51:07;24.90;31.10
75500;DHT22;64076;51.466;7.260;2024-03-07T01:53:33;24.90;31.10
75500;DHT22;64076;51.466;7.260;2024-03-07T01:55:59;24.90;31.10
75500;DHT22;64076;51.466;7.260;2024-03-07T01:58:26;24.90;31.00
75500;DHT22;64076;51.466;7.260;2024-03-07T02:00:51;24.90;31.00
75500;DHT22;64076;51.466;7.260;2024-03-07T02:03:17;24.90;31.00
75500;DHT22;64076;51.466;7.260;2024-03-07T02:05:43;24.90;31.00
75500;DHT22;64076;51.466;7.260;2024-03-07T02:08:09;24.90;31.00
75500;DHT22;64076;51.466;7.260;2024-03-07T02:10:34;24.90;31.00
75500;DHT22;64076;51.466;7.260;2024-03-07T02:13:00;24.90;30.90
75500;DHT22;64076;51.466;7.260;2024-03-07T02:15:26;24.90;30.90
75500;DHT22;64076;51.466;7.260;2024-03-07T02:17:52;24.90;30.90
75500;DHT22;64076;51.466;7.260;2024-03-07T02:20:17;24.90;30.90
75500;DHT22;64076;51.466;7.260;2024-03-07T02:22:43;24.90;30.90
75500;DHT22;64076;51.466;7.260;2024-03-07T02:25:09;24.90;30.90
75500;DHT22;64076;51.466;7.260;2024-03-07T02:27:38;24.90;30.80
75500;DHT22;64076;51.466;7.260;2024-03-07T02:30:04;24.90;30.80
75500;DHT22;64076;51.466;7.260;2024-03-07T02:32:34;24.90;30.70
75500;DHT22;64076;51.466;7.260;2024-03-07T02:34:59;24.90;30.80
75500;DHT22;64076;51.466;7.260;2024-03-07T02:37:25;24.90;30.70
75500;DHT22;64076;51.466;7.260;2024-03-07T02:39:50;24.90;30.70
75500;DHT22;64076;51.466;7.260;2024-03-07T02:42:16;24.90;30.70
75500;DHT22;64076;51.466;7.260;2024-03-07T02:44:41;24.90;30.70
75500;DHT22;64076;51.466;7.260;2024-03-07T02:47:07;24.90;30.70
75500;DHT22;64076;51.466;7.260;2024-03-07T02:49:33;24.90;30.70
75500;DHT22;64076;51.466;7.260;2024-03-07T02:51:59;24.80;30.70
75500;DHT22;64076;51.466;7.260;2024-03-07T02:54:24;24.80;30.70
75500;DHT22;64076;51.466;7.260;2024-03-07T02:56:50;24.80;30.70
75500;DHT22;64076;51.466;7.260;2024-03-07T02:59:15;24.80;30.70
75500;DHT22;64076;51.466;7.260;2024-03-07T03:01:42;24.70;30.70
75500;DHT22;64076;51.466;7.260;2024-03-07T03:04:07;24.80;30.70
75500;DHT22;64076;51.466;7.260;2024-03-07T03:06:33;24.80;30.70
75500;DHT22;64076;51.466;7.260;2024-03-07T03:08:58;24.80;30.70
75500;DHT22;64076;51.466;7.260;2024-03-07T03:11:24;24.80;30.70
75500;DHT22;64076;51.466;7.260;2024-03-07T03:13:51;24.80;30.70
75500;DHT22;64076;51.466;7.260;2024-03-07T03:16:17;24.80;30.70
75500;DHT22;64076;51.466;7.260;2024-03-07T03:18:42;24.80;30.60
75500;DHT22;64076;51.466;7.260;2024-03-07T03:21:08;24.80;30.60
75500;DHT22;64076;51.466;7.260;2024-03-07T03:23:34;24.80;30.60
75500;DHT22;64076;51.466;7.260;2024-03-07T03:26:00;24.90;30.60
75500;DHT22;64076;51.466;7.260;2024-03-07T03:28:25;24.90;30.60
75500;DHT22;64076;51.466;7.260;2024-03-07T03:30:51;24.90;30.60
75500;DHT22;64076;51.466;7.260;2024-03-07T03:33:17;24.90;30.60
75500;DHT22;64076;51.466;7.260;2024-03-07T03:35:43;24.90;30.50
75500;DHT22;64076;51.466;7.260;2024-03-07T03:38:08;24.90;30.50
75500;DHT22;64076;51.466;7.260;2024-03-07T03:40:35;24.80;30.50
75500;DHT22;64076;51.466;7.260;2024-03-07T03:43:00;24.80;30.50
75500;DHT22;64076;51.466;7.260;2024-03-07T03:45:26;24.80;30.50
75500;DHT22;64076;51.466;7.260;2024-03-07T03:47:52;24.80;30.50
75500;DHT22;64076;51.466;7.260;2024-03-07T03:50:18;24.80;30.50
75500;DHT22;64076;51.466;7.260;2024-03-07T03:52:44;24.80;30.50
75500;DHT22;64076;51.466;7.260;2024-03-07T03:55:10;24.80;30.50
75500;DHT22;64076;51.466;7.260;2024-03-07T03:57:38;24.80;30.60
75500;DHT22;64076;51.466;7.260;2024-03-07T04:00:09;24.80;30.50
75500;DHT22;64076;51.466;7.260;2024-03-07T04:02:51;24.80;30.50
75500;DHT22;64076;51.466;7.260;2024-03-07T04:05:18;24.80;30.50
75500;DHT22;64076;51.466;7.260;2024-03-07T04:07:45;24.80;30.50
75500;DHT22;64076;51.466;7.260;2024-03-07T04:10:12;24.80;30.50
75500;DHT22;64076;51.466;7.260;2024-03-07T04:12:39;24.70;30.50
75500;DHT22;64076;51.466;7.260;2024-03-07T04:15:10;24.80;30.50
75500;DHT22;64076;51.466;7.260;2024-03-07T04:17:36;24.70;30.50
75500;DHT22;64076;51.466;7.260;2024-03-07T04:20:03;24.70;30.50
75500;DHT22;64076;51.466;7.260;2024-03-07T04:22:31;24.80;30.50
75500;DHT22;64076;51.466;7.260;2024-03-07T04:24:57;24.70;30.50
75500;DHT22;64076;51.466;7.260;2024-03-07T04:27:22;24.70;30.50
75500;DHT22;64076;51.466;7.260;2024-03-07T04:29:48;24.70;30.50
75500;DHT22;64076;51.466;7.260;2024-03-07T04:32:14;24.70;30.40
75500;DHT22;64076;51.466;7.260;2024-03-07T04:34:40;24.70;30.40
75500;DHT22;64076;51.466;7.260;2024-03-07T04:37:06;24.70;30.50
75500;DHT22;64076;51.466;7.260;2024-03-07T04:39:31;24.70;30.40
75500;DHT22;64076;51.466;7.260;2024-03-07T04:42:03;24.60;30.40
75500;DHT22;64076;51.466;7.260;2024-03-07T04:44:30;24.70;30.40
75500;DHT22;64076;51.466;7.260;2024-03-07T04:46:59;24.70;30.40
75500;DHT22;64076;51.466;7.260;2024-03-07T04:49:27;24.70;30.40
75500;DHT22;64076;51.466;7.260;2024-03-07T04:51:55;24.70;30.30
75500;DHT22;64076;51.466;7.260;2024-03-07T04:54:22;24.70;30.30
75500;DHT22;64076;51.466;7.260;2024-03-07T04:56:49;24.70;30.30
75500;DHT22;64076;51.466;7.260;2024-03-07T04:59:15;24.70;30.30
75500;DHT22;64076;51.466;7.260;2024-03-07T05:01:42;24.70;30.20
75500;DHT22;64076;51.466;7.260;2024-03-07T05:04:08;24.70;30.20
75500;DHT22;64076;51.466;7.260;2024-03-07T05:06:34;24.70;30.20
75500;DHT22;64076;51.466;7.260;2024-03-07T05:09:03;24.70;30.20
75500;DHT22;64076;51.466;7.260;2024-03-07T05:11:30;24.70;30.10
75500;DHT22;64076;51.466;7.260;2024-03-07T05:13:59;24.70;30.10
75500;DHT22;64076;51.466;7.260;2024-03-07T05:16:28;24.70;30.10
75500;DHT22;64076;51.466;7.260;2024-03-07T05:18:55;24.70;30.10
75500;DHT22;64076;51.466;7.260;2024-03-07T05:21:25;24.70;30.10
75500;DHT22;64076;51.466;7.260;2024-03-07T05:24:00;24.70;30.10
75500;DHT22;64076;51.466;7.260;2024-03-07T05:26:27;24.70;30.10
75500;DHT22;64076;51.466;7.260;2024-03-07T05:28:53;24.70;30.10
75500;DHT22;64076;51.466;7.260;2024-03-07T05:31:20;24.70;30.00
75500;DHT22;64076;51.466;7.260;2024-03-07T05:33:46;24.60;30.00
75500;DHT22;64076;51.466;7.260;2024-03-07T05:36:12;24.60;30.00
75500;DHT22;64076;51.466;7.260;2024-03-07T05:38:44;24.60;30.00
75500;DHT22;64076;51.466;7.260;2024-03-07T05:41:10;24.60;30.00
75500;DHT22;64076;51.466;7.260;2024-03-07T05:43:38;24.60;30.00
75500;DHT22;64076;51.466;7.260;2024-03-07T05:46:04;24.60;30.00
75500;DHT22;64076;51.466;7.260;2024-03-07T05:48:35;24.60;30.00
75500;DHT22;64076;51.466;7.260;2024-03-07T05:51:01;24.60;30.00
75500;DHT22;64076;51.466;7.260;2024-03-07T05:53:26;24.60;29.90
75500;DHT22;64076;51.466;7.260;2024-03-07T05:55:52;24.60;29.90
75500;DHT22;64076;51.466;7.260;2024-03-07T05:58:17;24.60;29.90
75500;DHT22;64076;51.466;7.260;2024-03-07T06:00:45;24.50;29.90
75500;DHT22;64076;51.466;7.260;2024-03-07T06:03:20;24.50;29.90
75500;DHT22;64076;51.466;7.260;2024-03-07T06:05:48;24.50;29.90
75500;DHT22;64076;51.466;7.260;2024-03-07T06:08:18;24.50;29.80
75500;DHT22;64076;51.466;7.260;2024-03-07T06:10:44;24.50;29.90
75500;DHT22;64076;51.466;7.260;2024-03-07T06:13:15;24.50;29.80
75500;DHT22;64076;51.466;7.260;2024-03-07T06:15:45;24.50;29.80
75500;DHT22;64076;51.466;7.260;2024-03-07T06:18:12;24.50;29.80
75500;DHT22;64076;51.466;7.260;2024-03-07T06:20:42;24.50;29.70
75500;DHT22;64076;51.466;7.260;2024-03-07T06:23:10;24.50;29.70
75500;DHT22;64076;51.466;7.260;2024-03-07T06:25:41;24.60;29.40
75500;DHT22;64076;51.466;7.260;2024-03-07T06:28:16;24.70;29.20
75500;DHT22;64076;51.466;7.260;2024-03-07T06:30:43;24.70;29.00
75500;DHT22;64076;51.466;7.260;2024-03-07T06:33:09;24.70;28.80
75500;DHT22;64076;51.466;7.260;2024-03-07T06:35:42;24.80;28.70
75500;DHT22;64076;51.466;7.260;2024-03-07T06:38:08;24.80;28.50
75500;DHT22;64076;51.466;7.260;2024-03-07T06:40:38;24.90;28.30
75500;DHT22;64076;51.466;7.260;2024-03-07T06:43:10;24.90;28.20
75500;DHT22;64076;51.466;7.260;2024-03-07T06:45:39;24.90;28.20
75500;DHT22;64076;51.466;7.260;2024-03-07T06:48:07;25.00;28.00
75500;DHT22;64076;51.466;7.260;2024-03-07T06:50:37;25.00;28.00
75500;DHT22;64076;51.466;7.260;2024-03-07T06:53:03;25.00;28.00
75500;DHT22;64076;51.466;7.260;2024-03-07T06:55:29;25.00;27.90
75500;DHT22;64076;51.466;7.260;2024-03-07T06:57:54;25.10;27.80
75500;DHT22;64076;51.466;7.260;2024-03-07T07:00:20;25.10;27.80
75500;DHT22;64076;51.466;7.260;2024-03-07T07:02:49;25.10;27.80
75500;DHT22;64076;51.466;7.260;2024-03-07T07:05:15;25.20;27.70
75500;DHT22;64076;51.466;7.260;2024-03-07T07:07:46;25.10;27.70
75500;DHT22;64076;51.466;7.260;2024-03-07T07:10:15;25.10;27.70
75500;DHT22;64076;51.466;7.260;2024-03-07T07:12:46;25.20;27.70
75500;DHT22;64076;51.466;7.260;2024-03-07T07:15:14;25.20;27.70
75500;DHT22;64076;51.466;7.260;2024-03-07T07:17:41;25.20;27.70
75500;DHT22;64076;51.466;7.260;2024-03-07T07:20:07;25.30;27.70
75500;DHT22;64076;51.466;7.260;2024-03-07T07:22:39;25.30;27.70
75500;DHT22;64076;51.466;7.260;2024-03-07T07:25:05;25.30;27.70
75500;DHT22;64076;51.466;7.260;2024-03-07T07:27:32;25.30;27.60
75500;DHT22;64076;51.466;7.260;2024-03-07T07:30:00;25.40;27.60
75500;DHT22;64076;51.466;7.260;2024-03-07T07:32:26;25.40;27.60
75500;DHT22;64076;51.466;7.260;2024-03-07T07:34:53;25.40;27.60
75500;DHT22;64076;51.466;7.260;2024-03-07T07:37:18;25.40;27.60
75500;DHT22;64076;51.466;7.260;2024-03-07T07:39:44;25.40;27.60
75500;DHT22;64076;51.466;7.260;2024-03-07T07:42:11;25.40;27.60
75500;DHT22;64076;51.466;7.260;2024-03-07T07:44:36;25.50;27.60
75500;DHT22;64076;51.466;7.260;2024-03-07T07:47:02;25.50;27.60
75500;DHT22;64076;51.466;7.260;2024-03-07T07:49:28;25.50;27.60
75500;DHT22;64076;51.466;7.260;2024-03-07T07:51:53;25.50;27.60
75500;DHT22;64076;51.466;7.260;2024-03-07T07:54:19;25.50;27.60
75500;DHT22;64076;51.466;7.260;2024-03-07T07:56:46;25.60;27.50
75500;DHT22;64076;51.466;7.260;2024-03-07T07:59:15;25.60;27.50
75500;DHT22;64076;51.466;7.260;2024-03-07T08:01:41;25.60;27.50
75500;DHT22;64076;51.466;7.260;2024-03-07T08:04:06;25.60;27.50
75500;DHT22;64076;51.466;7.260;2024-03-07T08:06:33;25.60;27.40
75500;DHT22;64076;51.466;7.260;2024-03-07T08:08:59;25.70;27.40
75500;DHT22;64076;51.466;7.260;2024-03-07T08:11:25;25.70;27.40
75500;DHT22;64076;51.466;7.260;2024-03-07T08:13:50;25.70;27.50
75500;DHT22;64076;51.466;7.260;2024-03-07T08:16:17;25.70;27.40
75500;DHT22;64076;51.466;7.260;2024-03-07T08:18:43;25.70;27.40
75500;DHT22;64076;51.466;7.260;2024-03-07T08:21:09;25.70;27.40
75500;DHT22;64076;51.466;7.260;2024-03-07T08:23:38;25.70;27.40
75500;DHT22;64076;51.466;7.260;2024-03-07T08:26:04;25.70;27.40
75500;DHT22;64076;51.466;7.260;2024-03-07T08:28:31;25.70;27.50
75500;DHT22;64076;51.466;7.260;2024-03-07T08:30:56;25.70;27.40
75500;DHT22;64076;51.466;7.260;2024-03-07T08:33:22;25.70;27.40
75500;DHT22;64076;51.466;7.260;2024-03-07T08:35:47;25.70;27.30
75500;DHT22;64076;51.466;7.260;2024-03-07T08:38:15;25.70;27.40
75500;DHT22;64076;51.466;7.260;2024-03-07T08:40:40;25.70;27.30
75500;DHT22;64076;51.466;7.260;2024-03-07T08:43:06;25.70;27.30
75500;DHT22;64076;51.466;7.260;2024-03-07T08:45:32;25.70;27.20
75500;DHT22;64076;51.466;7.260;2024-03-07T08:47:58;25.70;27.20
75500;DHT22;64076;51.466;7.260;2024-03-07T08:50:24;25.70;27.20
75500;DHT22;64076;51.466;7.260;2024-03-07T08:52:52;25.60;27.20
75500;DHT22;64076;51.466;7.260;2024-03-07T08:55:23;25.60;27.20
75500;DHT22;64076;51.466;7.260;2024-03-07T08:57:50;25.60;27.20
75500;DHT22;64076;51.466;7.260;2024-03-07T09:00:17;25.60;27.20
75500;DHT22;64076;51.466;7.260;2024-03-07T09:02:57;25.60;27.20
75500;DHT22;64076;51.466;7.260;2024-03-07T09:05:23;25.60;27.10
75500;DHT22;64076;51.466;7.260;2024-03-07T09:07:50;25.60;27.10
75500;DHT22;64076;51.466;7.260;2024-03-07T09:10:16;25.60;27.00
75500;DHT22;64076;51.466;7.260;2024-03-07T09:12:41;25.70;27.00
75500;DHT22;64076;51.466;7.260;2024-03-07T09:15:07;25.70;26.90
75500;DHT22;64076;51.466;7.260;2024-03-07T09:17:36;25.70;26.90
75500;DHT22;64076;51.466;7.260;2024-03-07T09:20:05;25.70;26.90
75500;DHT22;64076;51.466;7.260;2024-03-07T09:22:31;25.70;26.90
75500;DHT22;64076;51.466;7.260;2024-03-07T09:24:57;25.70;26.80
75500;DHT22;64076;51.466;7.260;2024-03-07T09:27:22;25.70;26.90
75500;DHT22;64076;51.466;7.260;2024-03-07T09:29:48;25.60;26.90
75500;DHT22;64076;51.466;7.260;2024-03-07T09:32:14;25.70;26.90
75500;DHT22;64076;51.466;7.260;2024-03-07T09:34:40;25.60;26.90
75500;DHT22;64076;51.466;7.260;2024-03-07T09:37:05;25.60;26.80
75500;DHT22;64076;51.466;7.260;2024-03-07T09:39:34;25.60;26.80
75500;DHT22;64076;51.466;7.260;2024-03-07T09:42:07;25.60;26.80
75500;DHT22;64076;51.466;7.260;2024-03-07T09:44:38;25.70;26.80
75500;DHT22;64076;51.466;7.260;2024-03-07T09:47:05;25.60;26.90
75500;DHT22;64076;51.466;7.260;2024-03-07T09:49:33;25.60;26.90
75500;DHT22;64076;51.466;7.260;2024-03-07T09:52:04;25.70;26.90
75500;DHT22;64076;51.466;7.260;2024-03-07T09:54:33;25.70;26.80
75500;DHT22;64076;51.466;7.260;2024-03-07T09:56:59;25.70;26.80
75500;DHT22;64076;51.466;7.260;2024-03-07T09:59:28;25.70;26.80
75500;DHT22;64076;51.466;7.260;2024-03-07T10:01:56;25.70;26.80
75500;DHT22;64076;51.466;7.260;2024-03-07T10:04:29;25.70;26.80
75500;DHT22;64076;51.466;7.260;2024-03-07T10:06:56;25.70;26.70
75500;DHT22;64076;51.466;7.260;2024-03-07T10:09:22;25.70;26.70
75500;DHT22;64076;51.466;7.260;2024-03-07T10:11:58;25.80;26.70
75500;DHT22;64076;51.466;7.260;2024-03-07T10:14:24;25.80;26.60
75500;DHT22;64076;51.466;7.260;2024-03-07T10:16:50;25.70;26.70
75500;DHT22;64076;51.466;7.260;2024-03-07T10:19:15;25.70;26.60
75500;DHT22;64076;51.466;7.260;2024-03-07T10:21:41;25.70;26.60
75500;DHT22;64076;51.466;7.260;2024-03-07T10:24:08;25.70;26.60
75500;DHT22;64076;51.466;7.260;2024-03-07T10:26:35;25.70;26.60
75500;DHT22;64076;51.466;7.260;2024-03-07T10:29:00;25.70;26.50
75500;DHT22;64076;51.466;7.260;2024-03-07T10:31:31;25.70;26.60
75500;DHT22;64076;51.466;7.260;2024-03-07T10:34:00;25.70;26.50
75500;DHT22;64076;51.466;7.260;2024-03-07T10:36:30;25.70;26.60
75500;DHT22;64076;51.466;7.260;2024-03-07T10:39:00;25.70;26.60
75500;DHT22;64076;51.466;7.260;2024-03-07T10:41:28;25.60;26.60
75500;DHT22;64076;51.466;7.260;2024-03-07T10:43:57;25.70;26.60
75500;DHT22;64076;51.466;7.260;2024-03-07T10:46:26;25.70;26.70
75500;DHT22;64076;51.466;7.260;2024-03-07T10:48:55;25.60;26.70
75500;DHT22;64076;51.466;7.260;2024-03-07T10:51:29;25.70;26.70
75500;DHT22;64076;51.466;7.260;2024-03-07T10:59:18;25.70;26.90
75500;DHT22;64076;51.466;7.260;2024-03-07T11:01:59;25.70;26.80
75500;DHT22;64076;51.466;7.260;2024-03-07T11:04:25;25.70;26.80
75500;DHT22;64076;51.466;7.260;2024-03-07T11:06:51;25.80;26.90
75500;DHT22;64076;51.466;7.260;2024-03-07T11:09:17;25.80;26.90
75500;DHT22;64076;51.466;7.260;2024-03-07T11:11:49;25.80;26.90
75500;DHT22;64076;51.466;7.260;2024-03-07T11:14:15;25.80;27.00
75500;DHT22;64076;51.466;7.260;2024-03-07T11:16:43;25.80;27.00
75500;DHT22;64076;51.466;7.260;2024-03-07T11:19:28;25.70;27.00
75500;DHT22;64076;51.466;7.260;2024-03-07T11:21:56;25.70;27.00
75500;DHT22;64076;51.466;7.260;2024-03-07T11:24:25;25.70;27.10
75500;DHT22;64076;51.466;7.260;2024-03-07T11:26:52;25.70;27.10
75500;DHT22;64076;51.466;7.260;2024-03-07T11:29:51;25.80;27.10
75500;DHT22;64076;51.466;7.260;2024-03-07T11:32:21;25.80;27.10
75500;DHT22;64076;51.466;7.260;2024-03-07T11:34:48;25.80;27.10
75500;DHT22;64076;51.466;7.260;2024-03-07T11:37:37;25.80;27.10
75500;DHT22;64076;51.466;7.260;2024-03-07T11:40:06;25.80;27.10
75500;DHT22;64076;51.466;7.260;2024-03-07T11:42:34;25.80;27.10
75500;DHT22;64076;51.466;7.260;2024-03-07T11:45:01;25.80;27.20
75500;DHT22;64076;51.466;7.260;2024-03-07T11:47:35;25.80;27.20
75500;DHT22;64076;51.466;7.260;2024-03-07T11:50:04;25.80;27.30
75500;DHT22;64076;51.466;7.260;2024-03-07T11:52:33;25.80;27.30
75500;DHT22;64076;51.466;7.260;2024-03-07T11:55:02;25.90;27.30
75500;DHT22;64076;51.466;7.260;2024-03-07T11:57:30;25.90;27.30
75500;DHT22;64076;51.466;7.260;2024-03-07T11:59:59;25.90;27.30
75500;DHT22;64076;51.466;7.260;2024-03-07T12:02:37;25.80;27.40
75500;DHT22;64076;51.466;7.260;2024-03-07T12:05:04;25.80;27.50
75500;DHT22;64076;51.466;7.260;2024-03-07T12:07:33;25.80;27.60
75500;DHT22;64076;51.466;7.260;2024-03-07T12:10:00;25.70;27.60
75500;DHT22;64076;51.466;7.260;2024-03-07T12:12:29;25.80;27.60
75500;DHT22;64076;51.466;7.260;2024-03-07T12:14:54;25.80;27.60
75500;DHT22;64076;51.466;7.260;2024-03-07T12:17:23;25.80;27.60
75500;DHT22;64076;51.466;7.260;2024-03-07T12:19:49;25.80;27.60
75500;DHT22;64076;51.466;7.260;2024-03-07T12:22:21;25.80;27.60
75500;DHT22;64076;51.466;7.260;2024-03-07T12:25:01;25.80;27.70
75500;DHT22;64076;51.466;7.260;2024-03-07T12:27:28;25.80;27.70
75500;DHT22;64076;51.466;7.260;2024-03-07T12:29:54;25.80;27.70
75500;DHT22;64076;51.466;7.260;2024-03-07T12:32:20;25.80;27.70
75500;DHT22;64076;51.466;7.260;2024-03-07T12:34:46;25.70;27.70
75500;DHT22;64076;51.466;7.260;2024-03-07T12:37:15;25.70;27.80
75500;DHT22;64076;51.466;7.260;2024-03-07T12:39:42;25.80;27.80
75500;DHT22;64076;51.466;7.260;2024-03-07T12:42:24;25.80;27.80
75500;DHT22;64076;51.466;7.260;2024-03-07T12:44:50;25.80;27.80
75500;DHT22;64076;51.466;7.260;2024-03-07T12:47:17;25.70;27.90
75500;DHT22;64076;51.466;7.260;2024-03-07T12:49:43;25.70;27.80
75500;DHT22;64076;51.466;7.260;2024-03-07T12:52:10;25.80;27.90
75500;DHT22;64076;51.466;7.260;2024-03-07T12:54:38;25.80;27.90
75500;DHT22;64076;51.466;7.260;2024-03-07T12:57:07;25.80;27.90
75500;DHT22;64076;51.466;7.260;2024-03-07T12:59:39;25.80;27.90
75500;DHT22;64076;51.466;7.260;2024-03-07T13:02:08;25.80;27.90
75500;DHT22;64076;51.466;7.260;2024-03-07T13:04:34;25.80;27.90
75500;DHT22;64076;51.466;7.260;2024-03-07T13:07:02;25.80;27.90
75500;DHT22;64076;51.466;7.260;2024-03-07T13:09:33;25.80;27.80
75500;DHT22;64076;51.466;7.260;2024-03-07T13:11:59;25.80;27.90
75500;DHT22;64076;51.466;7.260;2024-03-07T13:14:31;25.80;27.90
75500;DHT22;64076;51.466;7.260;2024-03-07T13:17:00;25.80;27.90
75500;DHT22;64076;51.466;7.260;2024-03-07T13:19:27;25.80;27.90
75500;DHT22;64076;51.466;7.260;2024-03-07T13:21:53;25.80;27.80
75500;DHT22;64076;51.466;7.260;2024-03-07T13:24:19;25.80;27.80
75500;DHT22;64076;51.466;7.260;2024-03-07T13:26:45;25.80;27.80
75500;DHT22;64076;51.466;7.260;2024-03-07T13:29:13;25.80;27.70
75500;DHT22;64076;51.466;7.260;2024-03-07T13:31:40;25.80;27.70
75500;DHT22;64076;51.466;7.260;2024-03-07T13:34:08;25.80;27.70
75500;DHT22;64076;51.466;7.260;2024-03-07T13:36:41;25.80;27.70
75500;DHT22;64076;51.466;7.260;2024-03-07T13:39:08;25.80;27.70
75500;DHT22;64076;51.466;7.260;2024-03-07T13:41:37;25.80;27.70
75500;DHT22;64076;51.466;7.260;2024-03-07T13:44:03;25.80;27.70
75500;DHT22;64076;51.466;7.260;2024-03-07T13:46:29;25.80;27.60
75500;DHT22;64076;51.466;7.260;2024-03-07T13:49:01;25.80;27.60
75500;DHT22;64076;51.466;7.260;2024-03-07T13:51:38;25.80;27.50
75500;DHT22;64076;51.466;7.260;2024-03-07T13:54:06;25.80;27.50
75500;DHT22;64076;51.466;7.260;2024-03-07T13:57:40;25.80;27.50
75500;DHT22;64076;51.466;7.260;2024-03-07T14:03:38;25.80;27.50
75500;DHT22;64076;51.466;7.260;2024-03-07T14:06:18;25.80;27.50
75500;DHT22;64076;51.466;7.260;2024-03-07T14:15:02;25.70;27.40
75500;DHT22;64076;51.466;7.260;2024-03-07T14:21:16;25.70;27.30
75500;DHT22;64076;51.466;7.260;2024-03-07T14:27:15;25.60;27.10
75500;DHT22;64076;51.466;7.260;2024-03-07T14:33:00;25.60;27.20
75500;DHT22;64076;51.466;7.260;2024-03-07T14:40:39;25.60;27.00
75500;DHT22;64076;51.466;7.260;2024-03-07T14:43:04;25.60;27.00
75500;DHT22;64076;51.466;7.260;2024-03-07T14:45:36;25.60;26.90
75500;DHT22;64076;51.466;7.260;2024-03-07T14:48:06;25.60;26.80
75500;DHT22;64076;51.466;7.260;2024-03-07T14:50:39;25.70;26.80
75500;DHT22;64076;51.466;7.260;2024-03-07T14:53:06;25.70;26.60
75500;DHT22;64076;51.466;7.260;2024-03-07T14:55:32;25.70;26.70
75500;DHT22;64076;51.466;7.260;2024-03-07T14:57:58;25.70;26.70
75500;DHT22;64076;51.466;7.260;2024-03-07T15:00:25;25.70;26.60
75500;DHT22;64076;51.466;7.260;2024-03-07T15:02:54;25.70;26.50
75500;DHT22;64076;51.466;7.260;2024-03-07T15:05:24;25.70;26.50
75500;DHT22;64076;51.466;7.260;2024-03-07T15:07:53;25.70;26.50
75500;DHT22;64076;51.466;7.260;2024-03-07T15:10:43;25.70;26.50
75500;DHT22;64076;51.466;7.260;2024-03-07T15:13:12;25.70;26.40
75500;DHT22;64076;51.466;7.260;2024-03-07T15:15:38;25.70;26.40
75500;DHT22;64076;51.466;7.260;2024-03-07T15:18:05;25.70;26.40
75500;DHT22;64076;51.466;7.260;2024-03-07T15:20:34;25.70;26.40
75500;DHT22;64076;51.466;7.260;2024-03-07T15:23:00;25.80;26.50
75500;DHT22;64076;51.466;7.260;2024-03-07T15:25:27;25.80;26.50
75500;DHT22;64076;51.466;7.260;2024-03-07T15:27:54;25.80;26.50
75500;DHT22;64076;51.466;7.260;2024-03-07T15:30:22;25.80;26.60
75500;DHT22;64076;51.466;7.260;2024-03-07T15:32:51;25.80;26.60
75500;DHT22;64076;51.466;7.260;2024-03-07T15:35:17;25.80;26.70
75500;DHT22;64076;51.466;7.260;2024-03-07T15:37:47;25.80;26.70
75500;DHT22;64076;51.466;7.260;2024-03-07T15:40:17;25.80;26.80
75500;DHT22;64076;51.466;7.260;2024-03-07T15:42:46;25.80;26.80
75500;DHT22;64076;51.466;7.260;2024-03-07T15:45:17;25.80;26.80
75500;DHT22;64076;51.466;7.260;2024-03-07T15:47:48;25.90;26.80
75500;DHT22;64076;51.466;7.260;2024-03-07T15:50:13;25.90;26.90
75500;DHT22;64076;51.466;7.260;2024-03-07T15:57:49;25.90;26.90
75500;DHT22;64076;51.466;7.260;2024-03-07T16:00:16;25.90;27.00
75500;DHT22;64076;51.466;7.260;2024-03-07T16:03:00;25.90;26.90
75500;DHT22;64076;51.466;7.260;2024-03-07T16:05:30;25.90;27.00
75500;DHT22;64076;51.466;7.260;2024-03-07T16:07:57;25.90;27.00
75500;DHT22;64076;51.466;7.260;2024-03-07T16:10:27;25.90;27.00